Time;durP1;ratioP1;P1;durP2;ratioP2;P2;SDS_P1;SDS_P2;PMS_P1;PMS_P2;Temp;Humidity;BMP_temperature;BMP_pressure;BME280_temperature;BME280_humidity;BME280_pressure;Samples;Min_cycle;Max_cycle;Signal;HPM_P1;HPM_P2
2022/12/16 00:00:07;;;;;;;;;;;;;;;5.10;100.00;99643.25;335376;29;1542;-76
2022/12/16 00:00:18;;;;;;;;;;;;;;;5.10;100.00;99643.25;337641;29;1442;-77
2022/12/16 00:00:28;;;;;;;;;;;;;;;5.10;100.00;99636.31;339433;29;1858;-78
2022/12/16 00:00:38;;;;;;;;;;;;;;;5.11;100.00;99644.97;337841;29;1212;-77
2022/12/16 00:00:48;;;;;;;;;;;;;;;5.10;100.00;99638.06;336269;29;2563;-77
2022/12/16 00:01:08;;;;;;;;;;;;;;;5.09;100.00;99638.94;335661;29;2271;-77
2022/12/16 00:01:20;;;;;;;;;;;;;;;5.08;100.00;99635.50;336810;29;2272;-76
2022/12/16 00:01:30;;;;;;;;;;;;;;;5.07;100.00;99638.13;331361;29;2754;-76
2022/12/16 00:01:41;;;;;;;;;;;;;;;5.06;100.00;99636.41;327056;30;1218;-76
2022/12/16 00:01:51;;;;;;;;;;;;;;;5.05;100.00;99632.97;329109;29;2800;-76
2022/12/16 00:02:01;;;;;;;;;;;;;;;5.07;100.00;99633.78;328606;30;1770;-77
2022/12/16 00:02:11;;;;;;;;;;;;;;;5.07;100.00;99632.94;325986;30;1419;-77
2022/12/16 00:02:21;;;;;;;;;;;;;;;5.06;100.00;99636.41;326756;30;1379;-77
2022/12/16 00:02:32;;;;;;;;;;;;;;;5.08;100.00;99634.66;323249;30;1981;-77
2022/12/16 00:02:42;;;;;;;;;;;;;;;5.08;100.00;99634.66;322291;30;877;-77
2022/12/16 00:02:52;;;;;;;;;;;;;;;5.07;100.00;99631.19;321890;30;3179;-76
2022/12/16 00:03:02;;;;;;;;;;;;;;;5.08;100.00;99632.06;321042;30;2884;-76
2022/12/16 00:03:13;;;;;;;;;;;;;;;5.08;100.00;99626.88;318983;31;1218;-75
2022/12/16 00:03:23;;;;;;;;;;;;;;;5.09;100.00;99638.94;315489;31;1177;-75
2022/12/16 00:03:33;;;;;;;;;;;;;;;5.09;100.00;99631.16;313626;31;3290;-75
2022/12/16 00:03:50;;;;;;;;;;;;;;;5.08;100.00;99625.13;310521;31;3286;-75
2022/12/16 00:04:00;;;;;;;;;;;;;;;5.09;100.00;99625.97;310426;31;3624;-75
2022/12/16 00:04:10;;;;;;;;;;;;;;;5.10;100.00;99628.53;314108;31;1559;-75
2022/12/16 00:04:20;;;;;;;;;;;;;;;5.11;100.00;99632.00;312734;31;2473;-76
2022/12/16 00:04:30;;;;;;;;;;;;;;;5.12;100.00;99638.91;310849;31;2583;-76
2022/12/16 00:04:41;;;;;;;;;;;;;;;5.13;100.00;99632.81;308673;32;1434;-76
2022/12/16 00:04:51;;;;;;;;;;;;;;;5.13;100.00;99631.09;306293;32;2674;-76
2022/12/16 00:05:01;;;;;;;;;;;;;;;5.14;100.00;99634.53;307466;31;3322;-76
2022/12/16 00:05:12;;;;;;;;;;;;;;;5.13;100.00;99632.81;307750;32;1298;-76
2022/12/16 00:05:24;;;;;;;;;;;;;;;5.14;100.00;99634.53;306872;32;4457;-78
2022/12/16 00:05:36;;;;;;;;;;;;;;;5.14;100.00;99629.34;309192;31;4529;-76
2022/12/16 00:05:47;;;;;;;;;;;;;;;5.15;100.00;99636.25;307773;32;4634;-76
2022/12/16 00:05:57;;;;;;;;;;;;;;;5.14;100.00;99635.41;305253;32;1365;-76
2022/12/16 00:06:07;;;;;;;;;;;;;;;5.15;100.00;99641.44;304961;32;4229;-75
2022/12/16 00:06:18;;;;;;;;;;;;;;;5.14;100.00;99635.41;303712;32;4420;-76
2022/12/16 00:06:30;;;;;;;;;;;;;;;5.14;100.00;99637.97;301629;32;2978;-76
2022/12/16 00:06:40;;;;;;;;;;;;;;;5.15;100.00;99641.44;300307;32;1266;-77
2022/12/16 00:06:50;;;;;;;;;;;;;;;5.15;100.00;99638.84;301232;32;3447;-77
2022/12/16 00:07:00;;;;;;;;;;;;;;;5.14;100.00;99635.41;299717;32;4115;-77
2022/12/16 00:07:11;;;;;;;;;;;;;;;5.14;100.00;99634.53;299852;32;1252;-77
2022/12/16 00:07:21;;;;;;;;;;;;;;;5.13;100.00;99630.22;298398;32;5000;-77
2022/12/16 00:07:31;;;;;;;;;;;;;;;5.13;100.00;99635.41;299937;32;6664;-77
2022/12/16 00:07:42;;;;;;;;;;;;;;;5.13;100.00;99636.28;304658;32;1071;-78
2022/12/16 00:07:54;;;;;;;;;;;;;;;5.09;100.00;99638.94;300566;32;6216;-76
2022/12/16 00:08:04;;;;;;;;;;;;;;;5.09;100.00;99636.34;299558;32;6197;-76
2022/12/16 00:08:14;;;;;;;;;;;;;;;5.08;100.00;99635.50;298623;32;5734;-76
2022/12/16 00:08:25;;;;;;;;;;;;;;;5.07;100.00;99638.97;297303;33;3729;-76
2022/12/16 00:08:36;;;;;;;;;;;;;;;5.07;100.00;99633.78;294980;33;6140;-76
2022/12/16 00:08:46;;;;;;;;;;;;;;;5.08;100.00;99639.84;294204;33;4403;-78
2022/12/16 00:08:57;;;;;;;;;;;;;;;5.08;100.00;99638.09;292322;33;1210;-76
2022/12/16 00:09:07;;;;;;;;;;;;;;;5.09;100.00;99638.94;291245;33;4902;-76
2022/12/16 00:09:17;;;;;;;;;;;;;;;5.09;100.00;99641.53;290762;33;5906;-76
2022/12/16 00:09:27;;;;;;;;;;;;;;;5.08;100.00;99640.69;289878;34;1396;-76
2022/12/16 00:09:38;;;;;;;;;;;;;;;5.09;100.00;99642.41;286569;33;7328;-76
2022/12/16 00:09:48;;;;;;;;;;;;;;;5.09;100.00;99638.94;282824;34;8798;-76
2022/12/16 00:09:58;;;;;;;;;;;;;;;5.08;100.00;99637.25;279070;34;8924;-76
2022/12/16 00:10:08;;;;;;;;;;;;;;;5.09;100.00;99639.81;281979;35;1241;-76
2022/12/16 00:10:19;;;;;;;;;;;;;;;5.10;100.00;99635.47;280904;34;9444;-76
2022/12/16 00:10:51;;;;;;;;;;;;;;;5.10;100.00;99640.66;281357;34;7782;-76
2022/12/16 00:10:59;;;;;;;;;;;;;;;5.06;100.00;99637.28;277922;35;6350;-76
2022/12/16 00:11:09;;;;;;;;;;;;;;;5.08;100.00;99634.66;278597;35;816;-76
2022/12/16 00:12:42;;;;;;;;;;;;;;;5.06;100.00;99636.41;2504953;27;19922;-75
2022/12/16 00:12:53;;;;;;;;;;;;;;;5.05;100.00;99634.69;356203;27;938;-76
2022/12/16 00:13:03;;;;;;;;;;;;;;;5.05;100.00;99630.38;354560;27;1377;-76
2022/12/16 00:13:13;;;;;;;;;;;;;;;5.05;100.00;99634.69;351860;28;1289;-76
2022/12/16 00:13:23;;;;;;;;;;;;;;;5.04;100.00;99635.59;350450;28;848;-76
2022/12/16 00:13:34;;;;;;;;;;;;;;;5.04;100.00;99633.84;349152;28;931;-76
2022/12/16 00:13:44;;;;;;;;;;;;;;;5.05;100.00;99632.09;349103;28;816;-76
2022/12/16 00:13:54;;;;;;;;;;;;;;;5.04;100.00;99633.00;351938;28;1192;-76
2022/12/16 00:14:05;;;;;;;;;;;;;;;5.04;100.00;99633.00;352037;28;836;-76
2022/12/16 00:14:15;;;;;;;;;;;;;;;5.03;100.00;99631.28;352905;28;1733;-76
2022/12/16 00:14:27;;;;;;;;;;;;;;;5.03;100.00;99631.28;351835;28;1219;-75
2022/12/16 00:14:38;;;;;;;;;;;;;;;5.01;100.00;99632.16;352979;28;896;-75
2022/12/16 00:14:48;;;;;;;;;;;;;;;5.03;100.00;99639.06;351731;28;1018;-74
2022/12/16 00:14:58;;;;;;;;;;;;;;;5.01;100.00;99634.75;350719;28;840;-74
2022/12/16 00:15:09;;;;;;;;;;;;;;;5.01;100.00;99629.56;350632;28;1329;-78
2022/12/16 00:15:19;;;;;;;;;;;;;;;5.01;100.00;99629.56;350763;28;784;-76
2022/12/16 00:15:29;;;;;;;;;;;;;;;5.01;100.00;99637.34;350729;28;820;-76
2022/12/16 00:15:39;;;;;;;;;;;;;;;5.01;100.00;99634.75;351941;28;1198;-76
2022/12/16 00:15:49;;;;;;;;;;;;;;;4.99;100.00;99636.53;351950;28;978;-76
2022/12/16 00:16:06;;;;;;;;;;;;;;;5.01;100.00;99633.91;349225;28;1199;-76
2022/12/16 00:16:17;;;;;;;;;;;;;;;5.00;100.00;99638.22;350492;28;999;-76
2022/12/16 00:16:32;;;;;;;;;;;;;;;5.01;100.00;99639.09;347769;28;1333;-76
2022/12/16 00:16:42;;;;;;;;;;;;;;;4.99;100.00;99631.34;346490;28;854;-76
2022/12/16 00:16:52;;;;;;;;;;;;;;;5.01;100.00;99639.09;347935;28;1327;-76
2022/12/16 00:17:02;;;;;;;;;;;;;;;4.98;100.00;99629.63;346274;28;1214;-76
2022/12/16 00:17:12;;;;;;;;;;;;;;;4.99;100.00;99631.34;346534;28;4002;-76
2022/12/16 00:17:23;;;;;;;;;;;;;;;4.99;100.00;99636.53;343576;28;5214;-76
2022/12/16 00:17:33;;;;;;;;;;;;;;;5.00;100.00;99638.22;345075;28;1799;-76
2022/12/16 00:17:43;;;;;;;;;;;;;;;4.99;100.00;99636.53;343626;28;1722;-76
2022/12/16 00:17:53;;;;;;;;;;;;;;;5.00;100.00;99639.97;346284;28;3486;-76
2022/12/16 00:18:04;;;;;;;;;;;;;;;4.99;100.00;99636.53;346262;28;857;-76
2022/12/16 00:18:14;;;;;;;;;;;;;;;5.00;100.00;99633.03;347875;28;1201;-76
2022/12/16 00:18:24;;;;;;;;;;;;;;;5.00;100.00;99633.03;346711;28;1535;-76
2022/12/16 00:18:34;;;;;;;;;;;;;;;5.01;100.00;99637.34;346368;28;1044;-76
2022/12/16 00:18:45;;;;;;;;;;;;;;;5.01;100.00;99639.94;346516;28;769;-76
2022/12/16 00:18:55;;;;;;;;;;;;;;;5.01;100.00;99634.75;348822;28;962;-76
2022/12/16 00:19:05;;;;;;;;;;;;;;;5.01;100.00;99631.31;346722;28;1224;-76
2022/12/16 00:19:15;;;;;;;;;;;;;;;5.02;100.00;99635.59;343756;28;1429;-76
2022/12/16 00:19:26;;;;;;;;;;;;;;;5.03;100.00;99636.47;345059;28;1133;-76
2022/12/16 00:19:36;;;;;;;;;;;;;;;5.04;100.00;99640.78;345086;28;872;-76
2022/12/16 00:19:46;;;;;;;;;;;;;;;5.04;100.00;99638.19;344236;28;1334;-76
2022/12/16 00:19:56;;;;;;;;;;;;;;;5.05;100.00;99639.88;343746;28;1433;-76
2022/12/16 00:20:07;;;;;;;;;;;;;;;5.05;100.00;99634.69;344368;28;872;-76
2022/12/16 00:20:17;;;;;;;;;;;;;;;5.05;100.00;99635.56;342365;28;964;-76
2022/12/16 00:20:27;;;;;;;;;;;;;;;5.06;100.00;99637.28;343852;28;861;-75
2022/12/16 00:20:42;;;;;;;;;;;;;;;5.06;100.00;99636.41;340769;28;1659;-76
2022/12/16 00:20:52;;;;;;;;;;;;;;;5.05;100.00;99634.69;341559;28;1492;-76
2022/12/16 00:21:03;;;;;;;;;;;;;;;5.05;100.00;99637.28;338511;28;1325;-76
2022/12/16 00:21:13;;;;;;;;;;;;;;;5.05;100.00;99635.56;341124;29;1249;-76
2022/12/16 00:21:28;;;;;;;;;;;;;;;5.05;100.00;99637.28;340769;28;1598;-76
2022/12/16 00:21:38;;;;;;;;;;;;;;;5.04;100.00;99636.44;342631;28;1910;-76
2022/12/16 00:21:48;;;;;;;;;;;;;;;5.06;100.00;99639.00;342310;28;1200;-77
2022/12/16 00:21:59;;;;;;;;;;;;;;;5.06;100.00;99641.59;342421;28;1242;-76
2022/12/16 00:22:09;;;;;;;;;;;;;;;5.06;100.00;99636.41;339760;29;964;-76
2022/12/16 00:22:19;;;;;;;;;;;;;;;5.06;100.00;99641.59;339121;29;1380;-76
2022/12/16 00:22:31;;;;;;;;;;;;;;;5.07;100.00;99635.53;339666;29;1254;-76
2022/12/16 00:22:41;;;;;;;;;;;;;;;5.07;100.00;99643.31;341998;28;1447;-76
2022/12/16 00:22:51;;;;;;;;;;;;;;;5.06;100.00;99632.06;339492;28;1705;-76
2022/12/16 00:23:02;;;;;;;;;;;;;;;5.07;100.00;99638.13;339376;28;1719;-76
2022/12/16 00:23:12;;;;;;;;;;;;;;;5.06;100.00;99641.59;338510;29;843;-76
2022/12/16 00:23:22;;;;;;;;;;;;;;;5.06;100.00;99641.59;334770;29;2118;-76
2022/12/16 00:23:33;;;;;;;;;;;;;;;5.06;100.00;99641.59;331724;29;2078;-76
2022/12/16 00:23:43;;;;;;;;;;;;;;;5.08;100.00;99637.25;332097;29;930;-76
2022/12/16 00:23:53;;;;;;;;;;;;;;;5.07;100.00;99638.13;331077;29;1422;-76
2022/12/16 00:24:03;;;;;;;;;;;;;;;5.06;100.00;99637.28;333642;29;848;-76
2022/12/16 00:24:14;;;;;;;;;;;;;;;5.05;100.00;99639.88;336666;29;1560;-76
2022/12/16 00:24:24;;;;;;;;;;;;;;;5.06;100.00;99641.59;336948;29;1060;-76
2022/12/16 00:24:34;;;;;;;;;;;;;;;5.05;100.00;99642.47;336840;29;1821;-76
2022/12/16 00:24:44;;;;;;;;;;;;;;;5.05;100.00;99642.47;334462;29;1335;-76
2022/12/16 00:24:55;;;;;;;;;;;;;;;5.04;100.00;99643.38;333080;29;2127;-76
2022/12/16 00:25:05;;;;;;;;;;;;;;;5.04;100.00;99638.19;333503;29;2206;-76
2022/12/16 00:25:16;;;;;;;;;;;;;;;5.04;100.00;99633.84;336802;29;863;-76
2022/12/16 00:25:26;;;;;;;;;;;;;;;5.00;100.00;99635.63;334131;29;2433;-76
2022/12/16 00:25:36;;;;;;;;;;;;;;;4.99;100.00;99636.53;335086;29;2604;-76
2022/12/16 00:25:46;;;;;;;;;;;;;;;5.00;100.00;99638.22;338428;29;853;-76
2022/12/16 00:25:57;;;;;;;;;;;;;;;5.00;100.00;99637.38;334656;29;736;-76
2022/12/16 00:26:07;;;;;;;;;;;;;;;4.99;100.00;99641.72;331760;29;1738;-76
2022/12/16 00:26:17;;;;;;;;;;;;;;;4.99;100.00;99633.06;328200;29;1267;-76
2022/12/16 00:26:30;;;;;;;;;;;;;;;4.99;100.00;99639.13;329806;29;4073;-75
2022/12/16 00:26:40;;;;;;;;;;;;;;;4.98;100.00;99634.81;326583;29;3129;-75
2022/12/16 00:26:51;;;;;;;;;;;;;;;4.98;100.00;99639.13;324330;29;2346;-75
2022/12/16 00:27:01;;;;;;;;;;;;;;;4.98;100.00;99640.00;323733;30;3454;-75
2022/12/16 00:27:11;;;;;;;;;;;;;;;4.96;100.00;99641.75;327343;30;2747;-75
2022/12/16 00:27:21;;;;;;;;;;;;;;;4.96;100.00;99636.56;322743;30;3334;-75
2022/12/16 00:27:32;;;;;;;;;;;;;;;4.96;100.00;99641.75;321760;30;3171;-75
2022/12/16 00:27:42;;;;;;;;;;;;;;;4.96;100.00;99641.75;323589;30;1213;-75
2022/12/16 00:27:52;;;;;;;;;;;;;;;4.97;100.00;99634.84;321823;30;3685;-75
2022/12/16 00:28:02;;;;;;;;;;;;;;;4.97;100.00;99637.44;322064;30;3415;-75
2022/12/16 00:28:13;;;;;;;;;;;;;;;4.97;100.00;99640.88;320616;30;1225;-76
2022/12/16 00:28:23;;;;;;;;;;;;;;;4.97;100.00;99642.63;319943;30;2335;-76
2022/12/16 00:28:33;;;;;;;;;;;;;;;4.97;100.00;99635.69;319315;30;2124;-76
2022/12/16 00:28:43;;;;;;;;;;;;;;;4.98;100.00;99641.72;317693;31;1240;-76
2022/12/16 00:28:54;;;;;;;;;;;;;;;4.97;100.00;99635.69;317936;31;2798;-76
2022/12/16 00:29:04;;;;;;;;;;;;;;;4.98;100.00;99639.13;316836;30;3421;-76
2022/12/16 00:29:14;;;;;;;;;;;;;;;4.97;100.00;99638.28;319081;30;1566;-76
2022/12/16 00:29:24;;;;;;;;;;;;;;;4.97;100.00;99637.44;320048;30;4009;-76
2022/12/16 00:29:35;;;;;;;;;;;;;;;4.98;100.00;99640.00;318757;30;4382;-76
2022/12/16 00:29:45;;;;;;;;;;;;;;;4.99;100.00;99635.66;317637;31;1696;-76
2022/12/16 00:29:55;;;;;;;;;;;;;;;4.98;100.00;99642.59;315843;31;4573;-76
2022/12/16 00:30:06;;;;;;;;;;;;;;;4.99;100.00;99635.66;315363;31;4752;-76
2022/12/16 00:30:16;;;;;;;;;;;;;;;5.00;100.00;99645.16;318793;31;841;-76
2022/12/16 00:30:26;;;;;;;;;;;;;;;5.01;100.00;99642.53;319353;30;4639;-76
2022/12/16 00:30:36;;;;;;;;;;;;;;;5.01;100.00;99639.94;313568;31;3135;-75
2022/12/16 00:30:47;;;;;;;;;;;;;;;5.02;100.00;99640.78;310232;31;3289;-75
2022/12/16 00:30:57;;;;;;;;;;;;;;;5.01;100.00;99634.75;313311;31;1072;-75
2022/12/16 00:31:07;;;;;;;;;;;;;;;5.01;100.00;99637.34;310540;31;4577;-75
2022/12/16 00:31:17;;;;;;;;;;;;;;;5.03;100.00;99641.66;309818;31;5866;-75
2022/12/16 00:31:27;;;;;;;;;;;;;;;5.03;100.00;99641.66;309216;31;1440;-75
2022/12/16 00:31:38;;;;;;;;;;;;;;;5.03;100.00;99631.28;303812;32;6255;-75
2022/12/16 00:31:48;;;;;;;;;;;;;;;5.04;100.00;99633.00;303106;32;6219;-75
2022/12/16 00:31:58;;;;;;;;;;;;;;;5.03;100.00;99634.72;305632;32;1255;-75
2022/12/16 00:32:09;;;;;;;;;;;;;;;5.03;100.00;99641.66;303832;32;6486;-75
2022/12/16 00:32:19;;;;;;;;;;;;;;;5.04;100.00;99638.19;302367;32;5962;-75
2022/12/16 00:32:29;;;;;;;;;;;;;;;5.03;100.00;99637.31;302421;32;943;-75
2022/12/16 00:32:39;;;;;;;;;;;;;;;5.04;100.00;99640.78;301490;32;6438;-76
2022/12/16 00:32:49;;;;;;;;;;;;;;;5.04;100.00;99633.00;300006;32;4619;-76
2022/12/16 00:33:00;;;;;;;;;;;;;;;5.05;100.00;99639.88;299242;33;1189;-76
2022/12/16 00:33:10;;;;;;;;;;;;;;;5.05;100.00;99634.69;296378;33;5156;-76
2022/12/16 00:33:20;;;;;;;;;;;;;;;5.04;100.00;99635.59;295123;33;6874;-76
2022/12/16 00:33:31;;;;;;;;;;;;;;;5.03;100.00;99639.91;294211;33;1445;-76
2022/12/16 00:33:42;;;;;;;;;;;;;;;5.03;100.00;99642.50;292639;33;8798;-76
2022/12/16 00:33:54;;;;;;;;;;;;;;;5.03;100.00;99639.06;290683;33;8666;-75
2022/12/16 00:34:05;;;;;;;;;;;;;;;5.00;100.00;99635.63;289516;33;9226;-76
2022/12/16 00:34:15;;;;;;;;;;;;;;;5.00;100.00;99633.03;289295;34;1627;-76
2022/12/16 00:34:26;;;;;;;;;;;;;;;5.00;100.00;99643.41;290561;33;9195;-76
2022/12/16 00:34:36;;;;;;;;;;;;;;;5.03;100.00;99636.47;287613;34;8507;-76
2022/12/16 00:34:46;;;;;;;;;;;;;;;5.03;100.00;99639.06;286362;34;1392;-76
2022/12/16 00:34:57;;;;;;;;;;;;;;;5.04;100.00;99635.59;283580;34;3882;-76
2022/12/16 00:36:53;;;;;;;;;;;;;;;5.04;100.00;99644.22;2495836;27;19937;-75
2022/12/16 00:37:03;;;;;;;;;;;;;;;5.03;100.00;99632.13;354911;27;907;-75
2022/12/16 00:37:13;;;;;;;;;;;;;;;5.04;100.00;99640.78;353582;28;831;-75
2022/12/16 00:37:23;;;;;;;;;;;;;;;5.04;100.00;99639.03;351858;28;1265;-77
2022/12/16 00:37:34;;;;;;;;;;;;;;;5.06;100.00;99642.44;350705;28;844;-76
2022/12/16 00:37:45;;;;;;;;;;;;;;;5.05;100.00;99635.56;349216;28;1268;-76
2022/12/16 00:37:56;;;;;;;;;;;;;;;5.05;100.00;99642.47;347751;28;1235;-76
2022/12/16 00:38:06;;;;;;;;;;;;;;;5.04;100.00;99638.19;349240;28;1183;-76
2022/12/16 00:38:16;;;;;;;;;;;;;;;5.04;100.00;99635.59;347757;28;1208;-76
2022/12/16 00:38:26;;;;;;;;;;;;;;;5.02;100.00;99638.19;347909;28;872;-76
2022/12/16 00:38:37;;;;;;;;;;;;;;;5.01;100.00;99637.34;347965;28;967;-76
2022/12/16 00:38:47;;;;;;;;;;;;;;;5.00;100.00;99635.63;347891;28;793;-76
2022/12/16 00:38:57;;;;;;;;;;;;;;;5.00;100.00;99638.22;346710;28;1246;-76
2022/12/16 00:39:08;;;;;;;;;;;;;;;5.00;100.00;99638.22;349109;28;1215;-76
2022/12/16 00:39:18;;;;;;;;;;;;;;;5.01;100.00;99639.94;351055;28;1652;-76
2022/12/16 00:39:28;;;;;;;;;;;;;;;4.99;100.00;99636.53;351967;28;1348;-76
2022/12/16 00:39:38;;;;;;;;;;;;;;;4.99;100.00;99641.72;350588;28;1394;-75
2022/12/16 00:39:48;;;;;;;;;;;;;;;4.98;100.00;99637.41;349405;28;1204;-75
2022/12/16 00:39:59;;;;;;;;;;;;;;;4.98;100.00;99647.78;349217;28;849;-75
2022/12/16 00:40:09;;;;;;;;;;;;;;;4.99;100.00;99646.03;350562;28;860;-75
2022/12/16 00:40:19;;;;;;;;;;;;;;;4.98;100.00;99640.00;350475;28;1216;-75
2022/12/16 00:40:29;;;;;;;;;;;;;;;4.98;100.00;99640.00;351053;28;883;-75
2022/12/16 00:40:40;;;;;;;;;;;;;;;4.99;100.00;99641.72;348997;28;1241;-75
2022/12/16 00:40:50;;;;;;;;;;;;;;;4.99;100.00;99641.72;351803;28;958;-75
2022/12/16 00:41:00;;;;;;;;;;;;;;;4.98;100.00;99641.72;350581;28;812;-75
2022/12/16 00:41:11;;;;;;;;;;;;;;;4.98;100.00;99644.31;350596;28;891;-75
2022/12/16 00:41:21;;;;;;;;;;;;;;;4.98;100.00;99647.78;351823;28;1241;-75
2022/12/16 00:41:31;;;;;;;;;;;;;;;4.96;100.00;99640.91;352066;28;925;-75
2022/12/16 00:41:41;;;;;;;;;;;;;;;4.96;100.00;99646.94;349143;28;1207;-75
2022/12/16 00:41:51;;;;;;;;;;;;;;;4.95;100.00;99639.19;349311;28;808;-76
2022/12/16 00:42:02;;;;;;;;;;;;;;;4.94;100.00;99642.66;349207;28;1356;-75
2022/12/16 00:42:12;;;;;;;;;;;;;;;4.93;100.00;99641.81;349491;28;1241;-75
2022/12/16 00:42:22;;;;;;;;;;;;;;;4.93;100.00;99646.13;350689;28;816;-76
2022/12/16 00:42:33;;;;;;;;;;;;;;;4.90;100.00;99652.25;349135;28;843;-76
2022/12/16 00:42:43;;;;;;;;;;;;;;;4.90;100.00;99649.63;349219;28;1269;-76
2022/12/16 00:42:53;;;;;;;;;;;;;;;4.89;100.00;99640.16;346490;28;1449;-76
2022/12/16 00:43:03;;;;;;;;;;;;;;;4.89;100.00;99644.47;346385;28;3993;-76
2022/12/16 00:43:13;;;;;;;;;;;;;;;4.86;100.00;99641.94;344616;28;5465;-76
2022/12/16 00:43:24;;;;;;;;;;;;;;;4.87;100.00;99641.06;347540;28;1548;-76
2022/12/16 00:43:34;;;;;;;;;;;;;;;4.87;100.00;99651.44;347213;28;1274;-77
2022/12/16 00:43:44;;;;;;;;;;;;;;;4.85;100.00;99648.88;344636;28;3328;-77
2022/12/16 00:43:54;;;;;;;;;;;;;;;4.85;100.00;99641.09;347710;28;868;-76
2022/12/16 00:44:05;;;;;;;;;;;;;;;4.86;100.00;99644.53;346394;28;1200;-76
2022/12/16 00:44:15;;;;;;;;;;;;;;;4.85;100.00;99646.28;347213;28;1568;-78
2022/12/16 00:44:25;;;;;;;;;;;;;;;4.85;100.00;99648.00;347828;28;1454;-77
2022/12/16 00:44:35;;;;;;;;;;;;;;;4.85;100.00;99645.41;343728;28;1533;-77
2022/12/16 00:44:46;;;;;;;;;;;;;;;4.85;100.00;99641.09;345418;28;1448;-78
2022/12/16 00:44:56;;;;;;;;;;;;;;;4.86;100.00;99644.53;342167;28;1977;-76
2022/12/16 00:45:06;;;;;;;;;;;;;;;4.85;100.00;99643.69;347392;28;1418;-76
2022/12/16 00:45:17;;;;;;;;;;;;;;;4.85;100.00;99643.69;344172;28;1334;-78
2022/12/16 00:45:27;;;;;;;;;;;;;;;4.85;100.00;99643.69;342396;28;1548;-78
2022/12/16 00:45:38;;;;;;;;;;;;;;;4.87;100.00;99649.69;343684;28;1191;-76
2022/12/16 00:45:48;;;;;;;;;;;;;;;4.87;100.00;99641.91;343519;28;1910;-77
2022/12/16 00:45:58;;;;;;;;;;;;;;;4.86;100.00;99649.72;344042;28;924;-77
2022/12/16 00:46:08;;;;;;;;;;;;;;;4.86;100.00;99639.34;343814;28;1373;-77
2022/12/16 00:46:19;;;;;;;;;;;;;;;4.85;100.00;99643.69;341708;28;1172;-76
2022/12/16 00:46:29;;;;;;;;;;;;;;;4.87;100.00;99647.09;339994;29;1339;-76
2022/12/16 00:46:39;;;;;;;;;;;;;;;4.85;100.00;99643.69;338424;29;1330;-76
2022/12/16 00:46:49;;;;;;;;;;;;;;;4.86;100.00;99645.38;341894;28;1316;-76
2022/12/16 00:46:59;;;;;;;;;;;;;;;4.88;100.00;99648.81;338646;29;1574;-76
2022/12/16 00:47:10;;;;;;;;;;;;;;;4.87;100.00;99647.09;337279;29;803;-76
2022/12/16 00:47:20;;;;;;;;;;;;;;;4.89;100.00;99644.47;336380;29;1734;-76
2022/12/16 00:47:30;;;;;;;;;;;;;;;4.88;100.00;99653.16;334294;29;1929;-75
2022/12/16 00:47:40;;;;;;;;;;;;;;;4.88;100.00;99648.81;334647;29;1210;-75
2022/12/16 00:47:51;;;;;;;;;;;;;;;4.88;100.00;99647.97;333085;29;2218;-76
2022/12/16 00:48:01;;;;;;;;;;;;;;;4.89;100.00;99645.34;332300;29;1601;-76
2022/12/16 00:48:11;;;;;;;;;;;;;;;4.89;100.00;99650.53;334556;29;1428;-76
2022/12/16 00:48:24;;;;;;;;;;;;;;;4.89;100.00;99647.06;335805;29;1329;-76
2022/12/16 00:48:34;;;;;;;;;;;;;;;4.89;100.00;99647.94;336831;29;1192;-76
2022/12/16 00:48:45;;;;;;;;;;;;;;;4.89;100.00;99652.25;335887;29;1840;-76
2022/12/16 00:48:55;;;;;;;;;;;;;;;4.88;100.00;99648.81;334467;29;1256;-76
2022/12/16 00:49:05;;;;;;;;;;;;;;;4.88;100.00;99647.97;333155;29;2231;-76
2022/12/16 00:49:15;;;;;;;;;;;;;;;4.89;100.00;99647.06;330935;29;2162;-76
2022/12/16 00:49:25;;;;;;;;;;;;;;;4.89;100.00;99650.53;333194;29;1308;-76
2022/12/16 00:49:36;;;;;;;;;;;;;;;4.90;100.00;99646.19;333145;29;1654;-76
2022/12/16 00:49:46;;;;;;;;;;;;;;;4.89;100.00;99650.53;330990;29;2486;-76
2022/12/16 00:49:56;;;;;;;;;;;;;;;4.88;100.00;99647.97;329615;30;914;-76
2022/12/16 00:50:07;;;;;;;;;;;;;;;4.86;100.00;99650.56;330881;29;1025;-76
2022/12/16 00:50:17;;;;;;;;;;;;;;;4.86;100.00;99654.91;329543;29;1857;-76
2022/12/16 00:50:28;;;;;;;;;;;;;;;4.85;100.00;99648.88;328306;30;1288;-76
2022/12/16 00:50:38;;;;;;;;;;;;;;;4.83;100.00;99650.63;328320;30;1214;-76
2022/12/16 00:50:49;;;;;;;;;;;;;;;4.84;100.00;99651.47;331706;29;2097;-76
2022/12/16 00:50:59;;;;;;;;;;;;;;;4.83;100.00;99654.94;326641;29;2063;-76
2022/12/16 00:51:09;;;;;;;;;;;;;;;4.83;100.00;99648.03;324619;30;1191;-76
2022/12/16 00:51:19;;;;;;;;;;;;;;;4.84;100.00;99651.47;322104;30;2900;-76
2022/12/16 00:51:30;;;;;;;;;;;;;;;4.84;100.00;99651.47;319767;30;2844;-76
2022/12/16 00:51:40;;;;;;;;;;;;;;;4.84;100.00;99646.28;323506;30;1289;-76
2022/12/16 00:51:50;;;;;;;;;;;;;;;4.83;100.00;99645.44;320749;30;2767;-77
2022/12/16 00:52:00;;;;;;;;;;;;;;;4.83;100.00;99642.00;320418;30;2971;-77
2022/12/16 00:52:11;;;;;;;;;;;;;;;4.83;100.00;99645.44;322075;30;3975;-76
2022/12/16 00:52:21;;;;;;;;;;;;;;;4.84;100.00;99646.28;319574;30;5046;-76
2022/12/16 00:52:31;;;;;;;;;;;;;;;4.85;100.00;99643.69;320333;30;3212;-76
2022/12/16 00:52:41;;;;;;;;;;;;;;;4.85;100.00;99642.81;318539;31;2661;-76
2022/12/16 00:52:51;;;;;;;;;;;;;;;4.85;100.00;99638.50;318170;31;3342;-76
2022/12/16 00:53:02;;;;;;;;;;;;;;;4.84;100.00;99641.97;311563;31;2495;-76
2022/12/16 00:53:12;;;;;;;;;;;;;;;4.83;100.00;99635.06;308168;31;3351;-76
2022/12/16 00:53:23;;;;;;;;;;;;;;;4.84;100.00;99636.78;308752;32;1238;-76
2022/12/16 00:53:34;;;;;;;;;;;;;;;4.82;100.00;99643.72;308231;31;4036;-76
2022/12/16 00:53:44;;;;;;;;;;;;;;;4.80;100.00;99635.13;308992;31;4130;-76
2022/12/16 00:53:54;;;;;;;;;;;;;;;4.78;100.00;99634.28;310921;31;1159;-76
2022/12/16 00:54:05;;;;;;;;;;;;;;;4.79;100.00;99637.75;309607;31;4146;-76
2022/12/16 00:54:15;;;;;;;;;;;;;;;4.77;100.00;99640.34;310016;31;3355;-76
2022/12/16 00:54:25;;;;;;;;;;;;;;;4.77;100.00;99642.94;309852;31;1333;-76
2022/12/16 00:54:35;;;;;;;;;;;;;;;4.77;100.00;99640.34;307190;31;3657;-77
2022/12/16 00:54:46;;;;;;;;;;;;;;;4.77;100.00;99634.31;306295;32;2901;-77
2022/12/16 00:54:56;;;;;;;;;;;;;;;4.76;100.00;99638.69;306586;32;1394;-77
2022/12/16 00:55:06;;;;;;;;;;;;;;;4.75;100.00;99634.38;302684;32;3451;-77
2022/12/16 00:55:17;;;;;;;;;;;;;;;4.75;100.00;99636.97;300832;32;4080;-77
2022/12/16 00:55:27;;;;;;;;;;;;;;;4.76;100.00;99636.09;299270;32;4900;-78
2022/12/16 00:55:37;;;;;;;;;;;;;;;4.76;100.00;99641.28;299044;33;1445;-78
2022/12/16 00:55:47;;;;;;;;;;;;;;;4.77;100.00;99634.31;299532;32;6208;-77
2022/12/16 00:56:04;;;;;;;;;;;;;;;4.77;100.00;99635.16;298108;32;5875;-77
2022/12/16 00:56:14;;;;;;;;;;;;;;;4.77;100.00;99635.16;297203;32;5849;-78
2022/12/16 00:56:24;;;;;;;;;;;;;;;4.78;100.00;99636.88;300600;32;876;-78
2022/12/16 00:56:35;;;;;;;;;;;;;;;4.79;100.00;99643.78;296343;33;4692;-78
2022/12/16 00:56:46;;;;;;;;;;;;;;;4.79;100.00;99636.00;293516;33;5477;-78
2022/12/16 00:56:56;;;;;;;;;;;;;;;4.80;100.00;99640.31;293357;33;1239;-78
2022/12/16 00:57:06;;;;;;;;;;;;;;;4.82;100.00;99637.69;296206;33;4385;-77
2022/12/16 00:57:17;;;;;;;;;;;;;;;4.84;100.00;99644.56;290717;33;5340;-77
2022/12/16 00:57:27;;;;;;;;;;;;;;;4.84;100.00;99639.38;286134;33;6534;-77
2022/12/16 00:57:37;;;;;;;;;;;;;;;4.85;100.00;99643.69;288777;34;1327;-77
2022/12/16 00:57:48;;;;;;;;;;;;;;;4.87;100.00;99641.91;284273;34;6823;-77
2022/12/16 00:57:58;;;;;;;;;;;;;;;4.88;100.00;99643.63;283374;34;8946;-77
2022/12/16 00:58:08;;;;;;;;;;;;;;;4.88;100.00;99638.44;282973;35;1449;-77
2022/12/16 00:58:18;;;;;;;;;;;;;;;4.89;100.00;99645.34;281384;34;9019;-75
2022/12/16 01:00:18;;;;;;;;;;;;;;;4.83;100.00;99632.47;2495427;27;20243;-77
2022/12/16 01:00:28;;;;;;;;;;;;;;;4.84;100.00;99634.19;354612;27;1279;-77
2022/12/16 01:00:39;;;;;;;;;;;;;;;4.85;100.00;99632.44;352058;28;924;-77
2022/12/16 01:00:50;;;;;;;;;;;;;;;4.86;100.00;99631.56;352104;28;1097;-76
2022/12/16 01:01:00;;;;;;;;;;;;;;;4.86;100.00;99634.16;350496;28;1206;-76
2022/12/16 01:01:10;;;;;;;;;;;;;;;4.86;100.00;99632.44;349313;28;883;-76
2022/12/16 01:01:21;;;;;;;;;;;;;;;4.85;100.00;99627.25;349788;28;1192;-75
2022/12/16 01:01:31;;;;;;;;;;;;;;;4.82;100.00;99630.75;346304;28;4455;-75